Time;durP1;ratioP1;P1;durP2;ratioP2;P2;SDS_P1;SDS_P2;PMS_P1;PMS_P2;Temp;Humidity;BMP_temperature;BMP_pressure;BME280_temperature;BME280_humidity;BME280_pressure;Samples;Min_cycle;Max_cycle;Signal;HPM_P1;HPM_P2
2022/01/07 00:02:11;;;;;;;4.15;3.40;;;;;;;0.83;49.77;100387.47;7794006;32;39878;-75
2022/01/07 00:06:27;;;;;;;5.57;4.15;;;;;;;0.94;49.13;100382.41;7793697;32;37727;-74
2022/01/07 00:10:44;;;;;;;6.62;3.80;;;;;;;0.95;49.15;100377.88;7793904;32;37634;-75
2022/01/07 00:15:00;;;;;;;6.87;4.12;;;;;;;0.62;50.13;100369.53;7793808;32;39238;-75
2022/01/07 00:19:18;;;;;;;8.52;4.37;;;;;;;0.62;49.52;100370.38;7793689;32;40176;-75
2022/01/07 00:23:34;;;;;;;7.37;3.80;;;;;;;0.46;50.31;100392.91;7793583;32;37849;-75
2022/01/07 00:27:51;;;;;;;5.07;4.25;;;;;;;0.30;51.08;100394.00;7793596;32;37677;-74
2022/01/07 00:32:07;;;;;;;8.57;4.10;;;;;;;0.35;50.56;100391.56;7793646;32;39410;-75
2022/01/07 00:36:23;;;;;;;6.35;4.18;;;;;;;0.54;50.56;100394.66;7793581;32;39766;-75
2022/01/07 00:40:40;;;;;;;12.90;4.28;;;;;;;0.49;50.18;100397.91;7793431;32;38531;-74
2022/01/07 00:44:56;;;;;;;7.37;4.00;;;;;;;0.62;50.59;100413.31;7793369;32;37690;-75
2022/01/07 00:49:13;;;;;;;6.85;4.57;;;;;;;0.25;51.70;100431.28;7793336;32;39966;-74
2022/01/07 00:53:29;;;;;;;6.18;4.32;;;;;;;0.61;50.79;100438.47;7792498;32;39693;-75
2022/01/07 00:57:47;;;;;;;8.45;4.80;;;;;;;0.81;49.59;100437.84;7793229;32;37701;-75
2022/01/07 01:02:03;;;;;;;6.10;4.55;;;;;;;0.84;49.46;100438.28;7793184;32;36880;-75
2022/01/07 01:06:34;;;;;;;6.15;4.80;;;;;;;0.68;50.42;100444.75;7793174;32;39960;-74
2022/01/07 01:10:50;;;;;;;6.75;4.53;;;;;;;0.59;50.58;100453.09;7793170;32;40755;-74
2022/01/07 01:15:08;;;;;;;13.48;5.68;;;;;;;0.48;50.66;100460.63;7792972;32;37832;-75
2022/01/07 01:19:25;;;;;;;7.47;4.80;;;;;;;0.58;50.61;100444.22;7793045;32;36882;-75
2022/01/07 01:23:45;;;;;;;11.07;5.82;;;;;;;0.83;49.92;100439.31;7792996;32;39222;-75
2022/01/07 01:28:01;;;;;;;8.38;5.95;;;;;;;0.72;50.22;100443.31;7792846;32;39967;-75
2022/01/07 01:32:17;;;;;;;22.08;8.60;;;;;;;0.80;49.71;100445.06;7792727;32;37855;-75
2022/01/07 01:36:33;;;;;;;14.13;7.72;;;;;;;0.71;50.17;100440.87;7792760;32;37858;-75
2022/01/07 01:40:49;;;;;;;14.77;7.53;;;;;;;0.66;50.28;100430.69;7792802;32;39088;-74
2022/01/07 01:45:07;;;;;;;10.23;6.10;;;;;;;0.67;50.50;100448.47;7792608;32;39933;-74
2022/01/07 01:49:24;;;;;;;8.60;5.28;;;;;;;0.75;50.52;100456.38;7792567;32;38554;-75
2022/01/07 01:53:41;;;;;;;7.60;5.47;;;;;;;0.84;49.56;100453.56;7792458;32;36928;-75
2022/01/07 01:57:58;;;;;;;9.93;4.93;;;;;;;0.88;49.41;100458.38;7792590;32;39969;-74
2022/01/07 02:02:14;;;;;;;7.50;4.82;;;;;;;0.70;50.17;100464.16;7792533;32;40719;-75
2022/01/07 02:06:30;;;;;;;12.18;5.30;;;;;;;0.30;51.57;100452.16;7792335;32;38744;-75
2022/01/07 02:10:46;;;;;;;7.95;5.10;;;;;;;0.19;52.14;100456.19;7791188;32;37047;-75
2022/01/07 02:15:03;;;;;;;10.73;5.30;;;;;;;-0.10;52.95;100463.22;7792331;32;39248;-75
2022/01/07 02:19:19;;;;;;;11.75;5.32;;;;;;;0.27;52.33;100456.03;7792326;32;40625;-75
2022/01/07 02:23:36;;;;;;;10.80;5.78;;;;;;;0.51;51.63;100448.69;7792151;32;38607;-75
2022/01/07 02:27:53;;;;;;;8.73;4.82;;;;;;;0.65;51.29;100449.66;7792101;32;37687;-74
2022/01/07 02:32:09;;;;;;;11.20;5.43;;;;;;;0.61;51.64;100454.59;7792110;32;39930;-75
2022/01/07 02:36:25;;;;;;;13.45;5.40;;;;;;;0.27;52.55;100453.38;7792073;32;39697;-74
2022/01/07 02:40:42;;;;;;;9.40;5.20;;;;;;;0.15;53.36;100457.56;7791898;32;38494;-74
2022/01/07 02:44:58;;;;;;;7.10;4.70;;;;;;;0.20;52.69;100459.69;7791860;32;37731;-74
2022/01/07 02:49:17;;;;;;;6.97;4.62;;;;;;;0.25;52.62;100455.41;7791897;32;39294;-74
2022/01/07 02:53:33;;;;;;;11.48;5.55;;;;;;;0.24;52.59;100445.69;7791660;32;39927;-75
2022/01/07 02:57:49;;;;;;;10.48;6.00;;;;;;;0.34;52.19;100443.53;7791658;32;37621;-74
2022/01/07 03:02:06;;;;;;;11.45;5.80;;;;;;;0.24;52.27;100442.19;7791592;32;37539;-74
2022/01/07 03:06:22;;;;;;;10.20;5.55;;;;;;;0.05;52.08;100449.78;7791449;32;39321;-74
2022/01/07 03:10:39;;;;;;;15.82;6.22;;;;;;;0.29;51.46;100451.31;7791343;32;40854;-74
2022/01/07 03:14:56;;;;;;;14.40;6.85;;;;;;;0.55;50.75;100447.28;7790236;32;37866;-74
2022/01/07 03:19:12;;;;;;;17.87;7.05;;;;;;;0.40;51.32;100454.53;7791223;32;36980;-74
2022/01/07 03:23:28;;;;;;;14.52;7.03;;;;;;;0.32;51.73;100474.28;7791118;32;39942;-74
2022/01/07 03:27:45;;;;;;;12.63;6.00;;;;;;;0.16;51.89;100472.62;7968310;26;39947;-77
2022/01/07 03:32:01;;;;;;;7.87;5.85;;;;;;;0.39;51.19;100463.63;7696317;32;38501;-76
2022/01/07 03:36:17;;;;;;;12.48;5.53;;;;;;;0.44;50.85;100469.25;7696249;32;37473;-76
2022/01/07 03:40:34;;;;;;;10.82;5.62;;;;;;;0.36;50.94;100471.03;7710025;32;39324;-76
2022/01/07 03:44:50;;;;;;;7.10;5.05;;;;;;;0.51;50.53;100476.34;7709597;32;39957;-76
2022/01/07 03:49:06;;;;;;;8.50;5.18;;;;;;;0.37;50.91;100472.69;7709749;32;38724;-77
2022/01/07 03:53:25;;;;;;;7.75;5.03;;;;;;;0.13;52.26;100483.72;7709582;32;36996;-76
2022/01/07 03:57:41;;;;;;;10.57;5.70;;;;;;;0.48;51.43;100492.81;7709538;32;39319;-76
2022/01/07 04:01:57;;;;;;;7.53;4.82;;;;;;;0.24;52.51;100493.97;7695623;32;40604;-77
2022/01/07 04:06:17;;;;;;;11.07;6.03;;;;;;;0.69;51.03;100493.88;7709271;32;38777;-77
2022/01/07 04:10:34;;;;;;;6.80;5.35;;;;;;;0.39;51.78;100501.19;7709193;32;37018;-77
2022/01/07 04:14:57;;;;;;;11.63;6.70;;;;;;;0.44;51.61;100502.28;7709066;32;39206;-77
2022/01/07 04:19:14;;;;;;;9.55;5.22;;;;;;;0.05;52.23;100494.53;7708929;32;39902;-76
2022/01/07 04:23:30;;;;;;;9.18;4.65;;;;;;;0.18;53.05;100503.59;7708735;32;37953;-76
2022/01/07 04:27:48;;;;;;;10.57;5.55;;;;;;;0.08;53.14;100488.81;7710348;32;37696;-77
2022/01/07 04:32:06;;;;;;;7.97;5.12;;;;;;;0.08;52.79;100502.22;7712881;32;38245;-76
2022/01/07 04:36:22;;;;;;;10.88;5.32;;;;;;;0.32;52.01;100493.88;7712649;32;41647;-77
2022/01/07 04:40:39;;;;;;;7.53;4.90;;;;;;;0.25;52.10;100500.19;7712670;32;38741;-76
2022/01/07 04:44:55;;;;;;;10.73;5.22;;;;;;;0.30;51.66;100498.59;7712527;32;36873;-77
2022/01/07 04:49:11;;;;;;;14.52;6.03;;;;;;;0.39;50.99;100495.81;7712585;32;38946;-77
2022/01/07 04:53:27;;;;;;;8.38;5.53;;;;;;;-0.07;52.30;100513.78;7712464;32;40623;-76
2022/01/07 04:57:44;;;;;;;8.07;4.82;;;;;;;-0.21;52.62;100517.28;7712382;32;37655;-76
2022/01/07 05:02:00;;;;;;;10.43;5.43;;;;;;;0.14;51.60;100517.59;7712400;32;37681;-76
2022/01/07 05:10:37;;;;;;;9.82;5.70;;;;;;;0.00;51.95;100527.28;7712386;32;40861;-77
2022/01/07 05:14:53;;;;;;;15.82;5.80;;;;;;;-0.07;51.79;100511.09;7712187;32;38574;-76
2022/01/07 05:19:09;;;;;;;7.35;5.15;;;;;;;-0.33;52.59;100524.91;7712281;32;36640;-77
2022/01/07 05:23:25;;;;;;;11.05;5.65;;;;;;;-0.22;52.36;100512.94;7712212;32;39259;-76
2022/01/07 05:27:41;;;;;;;17.05;6.30;;;;;;;-0.55;53.57;100526.66;7711839;32;40027;-77
2022/01/07 05:31:57;;;;;;;13.27;5.18;;;;;;;-0.70;54.52;100515.88;7712004;32;38708;-76
2022/01/07 05:36:13;;;;;;;10.73;6.40;;;;;;;-0.26;53.03;100511.63;7711994;32;36984;-76
2022/01/07 05:40:30;;;;;;;7.80;5.47;;;;;;;-0.65;53.73;100536.78;7711538;32;39185;-76
2022/01/07 05:44:46;;;;;;;17.98;5.87;;;;;;;-0.39;52.89;100523.00;7711883;32;39967;-76
2022/01/07 05:49:02;;;;;;;10.20;5.70;;;;;;;-0.52;53.07;100528.13;7711629;32;37933;-77
2022/01/07 05:53:18;;;;;;;9.27;5.35;;;;;;;-0.73;53.84;100534.16;7711745;32;37031;-77
2022/01/07 05:57:35;;;;;;;8.02;5.12;;;;;;;-0.56;53.31;100538.37;7711884;32;40109;-75
2022/01/07 06:01:51;;;;;;;10.38;5.35;;;;;;;-0.76;53.82;100536.19;7711575;32;39983;-76
2022/01/07 06:06:08;;;;;;;5.43;4.90;;;;;;;-0.96;54.29;100549.22;7711469;32;38014;-76
2022/01/07 06:10:24;;;;;;;7.72;5.25;;;;;;;-0.88;53.56;100540.31;7697923;32;37000;-77
2022/01/07 06:14:40;;;;;;;9.10;5.53;;;;;;;-1.16;54.69;100553.34;7697891;32;40140;-76
2022/01/07 06:18:59;;;;;;;7.32;5.40;;;;;;;-1.18;54.47;100555.37;7711482;32;40095;-76
2022/01/07 06:23:16;;;;;;;8.15;5.18;;;;;;;-1.10;54.36;100549.97;7711353;32;37886;-77
2022/01/07 06:27:32;;;;;;;12.65;6.03;;;;;;;-0.69;65.59;100556.88;7711301;32;36943;-76
2022/01/07 06:31:48;;;;;;;8.18;4.93;;;;;;;-1.06;59.19;100553.13;7697578;32;40031;-76
2022/01/07 06:36:04;;;;;;;9.98;5.95;;;;;;;-1.05;56.17;100560.13;7711220;32;40007;-76
2022/01/07 06:40:21;;;;;;;13.98;5.68;;;;;;;-0.77;53.91;100563.97;7711076;32;37777;-77
2022/01/07 06:44:37;;;;;;;12.20;5.72;;;;;;;-1.49;55.13;100574.91;7711088;32;37735;-78
2022/01/07 06:48:54;;;;;;;9.32;5.53;;;;;;;-1.34;55.05;100583.88;7709894;32;40270;-77
2022/01/07 06:53:10;;;;;;;7.75;5.20;;;;;;;-1.20;54.01;100578.81;7710940;32;40720;-77
2022/01/07 06:57:44;;;;;;;9.02;5.50;;;;;;;-1.33;54.23;100590.06;7710886;32;37438;-77
2022/01/07 07:02:00;;;;;;;9.40;6.05;;;;;;;-1.19;54.08;100575.97;7711300;32;35028;-77
2022/01/07 07:06:16;;;;;;;8.55;5.78;;;;;;;-1.51;55.03;100583.13;7710764;32;39303;-78
2022/01/07 07:10:32;;;;;;;11.40;6.20;;;;;;;-1.21;54.21;100583.34;7710594;32;40892;-78
2022/01/07 07:14:48;;;;;;;8.68;5.97;;;;;;;-1.33;54.31;100595.41;7710446;32;38756;-78
2022/01/07 07:19:04;;;;;;;8.73;6.07;;;;;;;-1.90;55.25;100583.06;7710425;32;36994;-81
2022/01/07 07:23:20;;;;;;;10.65;6.32;;;;;;;-1.60;54.77;100600.22;7710266;32;39223;-80
2022/01/07 07:27:37;;;;;;;16.23;6.78;;;;;;;-1.37;54.24;100594.09;7708858;32;41297;-80
2022/01/07 07:31:56;;;;;;;13.43;5.57;;;;;;;-1.27;54.62;100593.91;7707015;32;38473;-80
2022/01/07 07:36:27;;;;;;;9.95;5.10;;;;;;;-1.28;55.42;100585.00;7706625;32;36731;-81
2022/01/07 07:40:43;;;;;;;9.50;5.93;;;;;;;-1.20;54.78;100598.38;7707213;32;39869;-81
2022/01/07 07:44:59;;;;;;;16.98;7.35;;;;;;;-0.99;54.37;100591.56;7708322;32;39708;-80
2022/01/07 07:49:15;;;;;;;13.75;7.57;;;;;;;-1.19;53.98;100596.50;7709546;32;38508;-80
2022/01/07 07:53:31;;;;;;;10.75;6.65;;;;;;;-0.63;53.14;100591.00;7709631;32;36862;-80
2022/01/07 07:57:48;;;;;;;13.25;5.55;;;;;;;-0.86;53.25;100604.34;7695798;32;39276;-80
2022/01/07 08:02:05;;;;;;;8.32;5.75;;;;;;;-0.70;53.42;100592.72;7711258;32;39859;-81
2022/01/07 08:06:22;;;;;;;9.27;5.72;;;;;;;-0.42;53.26;100595.69;7712909;32;37999;-81
2022/01/07 08:10:45;;;;;;;12.75;5.97;;;;;;;-0.41;53.19;100595.50;7712981;32;37687;-82
2022/01/07 08:19:36;;;;;;;14.23;7.43;;;;;;;-0.13;54.56;100602.13;7712875;32;40012;-80
2022/01/07 08:23:54;;;;;;;11.57;6.80;;;;;;;0.22;54.37;100595.25;7712753;32;38533;-80
2022/01/07 08:28:12;;;;;;;10.73;6.87;;;;;;;0.20;53.61;100604.50;7698941;32;37060;-81
2022/01/07 08:37:03;;;;;;;12.85;7.55;;;;;;;0.85;52.22;100586.78;7712654;32;39894;-79
2022/01/07 08:41:20;;;;;;;13.25;7.75;;;;;;;1.01;51.97;100588.41;7712570;32;37570;-81
2022/01/07 08:45:38;;;;;;;13.55;7.97;;;;;;;1.11;51.37;100587.06;7712569;32;37750;-80
2022/01/07 08:49:55;;;;;;;13.30;7.53;;;;;;;1.31;50.94;100589.13;7712632;32;39190;-81
2022/01/07 08:54:12;;;;;;;16.83;9.02;;;;;;;1.43;50.88;100581.38;7712407;32;39832;-81
2022/01/07 08:58:28;;;;;;;15.35;7.43;;;;;;;1.83;50.00;100587.13;7712360;32;38706;-81
2022/01/07 09:02:44;;;;;;;14.95;7.32;;;;;;;1.47;51.01;100588.06;7712399;32;37071;-81
2022/01/07 09:07:00;;;;;;;13.10;7.10;;;;;;;2.21;48.76;100582.22;7712404;32;39968;-80
2022/01/07 09:11:17;;;;;;;13.88;7.03;;;;;;;2.38;48.25;100571.12;7712442;32;40708;-81
2022/01/07 09:15:33;;;;;;;11.75;6.65;;;;;;;2.48;48.02;100563.50;7711603;32;37567;-81
2022/01/07 09:19:49;;;;;;;14.48;6.32;;;;;;;3.07;47.51;100545.09;7712164;32;37728;-80
2022/01/07 09:24:07;;;;;;;11.30;5.47;;;;;;;3.48;47.00;100552.19;7712158;32;40150;-80
2022/01/07 09:28:23;;;;;;;10.85;5.70;;;;;;;3.96;45.59;100535.78;7711750;32;40831;-80
2022/01/07 09:32:40;;;;;;;14.15;6.65;;;;;;;4.33;39.69;100531.56;7712000;32;38110;-80
2022/01/07 09:36:56;;;;;;;12.93;6.15;;;;;;;3.98;44.87;100535.59;7712082;32;37715;-81
2022/01/07 09:41:12;;;;;;;11.50;5.47;;;;;;;4.08;44.86;100542.19;7711944;32;39276;-81
2022/01/07 09:45:29;;;;;;;15.00;6.72;;;;;;;4.25;42.51;100514.78;7711824;32;40027;-81
2022/01/07 09:49:46;;;;;;;9.75;5.43;;;;;;;4.17;44.33;100526.59;7711968;32;38737;-81
2022/01/07 09:54:06;;;;;;;11.30;5.97;;;;;;;4.53;40.83;100513.62;7698179;32;36889;-82
2022/01/07 09:58:22;;;;;;;5.50;3.72;;;;;;;4.63;42.40;100516.69;7698167;32;40104;-81
2022/01/07 10:02:57;;;;;;;7.93;4.07;;;;;;;5.33;36.14;100499.62;7711644;32;40913;-81
2022/01/07 10:07:23;;;;;;;6.90;3.60;;;;;;;5.89;36.02;100508.75;7711533;32;38548;-81
2022/01/07 10:11:39;;;;;;;7.97;4.05;;;;;;;5.99;34.69;100493.66;7711662;32;36827;-81
2022/01/07 10:15:56;;;;;;;6.55;4.20;;;;;;;6.50;34.68;100490.78;7711580;32;39530;-81
2022/01/07 10:20:42;;;;;;;7.97;4.53;;;;;;;6.53;35.44;100482.22;7700190;32;41282;-82
2022/01/07 10:25:03;;;;;;;10.13;4.68;;;;;;;6.82;31.92;100477.87;7711137;32;38662;-82
2022/01/07 10:29:31;;;;;;;7.65;3.90;;;;;;;7.23;30.51;100469.97;7710912;32;37524;-81
2022/01/07 10:33:49;;;;;;;10.35;4.05;;;;;;;7.44;29.54;100466.69;7711479;32;39984;-79
2022/01/07 10:38:05;;;;;;;7.80;4.72;;;;;;;7.75;28.70;100461.16;7711025;32;39729;-78
2022/01/07 10:42:25;;;;;;;6.12;3.78;;;;;;;7.62;29.81;100456.78;7711037;32;37918;-78
2022/01/07 10:46:41;;;;;;;5.87;3.10;;;;;;;7.95;29.56;100449.91;7710950;32;37677;-81
2022/01/07 10:50:59;;;;;;;7.50;3.17;;;;;;;8.34;28.06;100433.91;7703133;32;250799;-81
2022/01/07 10:55:18;;;;;;;9.25;3.20;;;;;;;8.81;26.07;100433.72;7710863;32;39920;-80
2022/01/07 10:59:37;;;;;;;5.25;3.33;;;;;;;9.12;25.20;100423.37;7710858;32;37992;-81
2022/01/07 11:03:56;;;;;;;7.10;2.87;;;;;;;8.54;25.10;100431.62;7710775;32;37146;-82
2022/01/07 11:08:16;;;;;;;5.53;2.90;;;;;;;7.55;24.75;100418.91;7696996;32;40142;-83
2022/01/07 11:12:33;;;;;;;7.93;2.95;;;;;;;8.06;24.68;100416.50;7697415;32;39958;-82
2022/01/07 11:16:49;;;;;;;5.07;2.90;;;;;;;8.31;24.36;100410.75;7710368;32;37864;-83
2022/01/07 11:21:06;;;;;;;8.05;3.00;;;;;;;7.97;24.19;100398.91;7696500;32;37151;-83
2022/01/07 11:25:33;;;;;;;6.12;3.20;;;;;;;8.19;23.89;100383.66;7696431;32;40087;-83
2022/01/07 11:30:04;;;;;;;5.75;3.15;;;;;;;7.90;25.08;100391.75;7696629;32;40538;-83
2022/01/07 11:34:24;;;;;;;5.68;3.40;;;;;;;7.60;24.94;100380.22;7709883;32;38103;-82
2022/01/07 11:38:46;;;;;;;5.37;3.62;;;;;;;7.69;26.08;100386.94;7712981;32;38150;-82
2022/01/07 11:43:05;;;;;;;7.03;3.58;;;;;;;7.33;26.41;100378.00;7713246;32;40007;-82
2022/01/07 11:47:24;;;;;;;7.22;3.58;;;;;;;7.74;25.43;100381.59;7699271;32;40942;-82
2022/01/07 11:51:41;;;;;;;7.28;3.87;;;;;;;7.55;25.45;100377.41;7713249;32;37810;-82
2022/01/07 11:56:02;;;;;;;7.18;3.50;;;;;;;7.94;25.63;100364.12;7713154;32;37801;-79
2022/01/07 12:00:58;;;;;;;5.65;3.20;;;;;;;8.18;25.14;100368.41;7713141;32;39436;-80
2022/01/07 12:05:33;;;;;;;8.18;3.78;;;;;;;8.02;24.82;100358.28;7712067;32;41317;-81
2022/01/07 12:09:49;;;;;;;5.25;3.33;;;;;;;7.76;24.70;100365.09;7712875;32;37773;-81
2022/01/07 12:14:15;;;;;;;7.03;3.72;;;;;;;7.99;24.83;100342.50;7712998;32;37116;-80
2022/01/07 12:18:36;;;;;;;9.40;3.35;;;;;;;8.46;23.92;100342.31;7712924;32;39385;-80
2022/01/07 12:22:54;;;;;;;9.02;3.62;;;;;;;8.23;23.85;100341.34;7712928;32;40005;-80
2022/01/07 12:27:23;;;;;;;7.25;3.45;;;;;;;8.99;23.48;100332.88;7712407;32;38742;-83
2022/01/07 12:31:49;;;;;;;6.68;3.55;;;;;;;9.00;23.33;100328.28;7712766;32;37017;-82
2022/01/07 12:36:05;;;;;;;5.07;3.45;;;;;;;9.46;21.94;100317.25;7712546;32;39440;-82
2022/01/07 12:40:21;;;;;;;7.15;3.37;;;;;;;9.35;23.03;100317.09;7712547;32;39991;-82
2022/01/07 12:44:51;;;;;;;7.12;3.72;;;;;;;9.84;23.20;100307.38;7712471;32;38693;-81
2022/01/07 12:49:09;;;;;;;5.25;3.28;;;;;;;9.82;21.49;100302.19;7711497;32;37786;-81
2022/01/07 12:53:25;;;;;;;8.40;4.00;;;;;;;9.85;23.00;100292.66;7712368;32;39492;-81
2022/01/07 12:57:46;;;;;;;6.10;3.55;;;;;;;10.76;21.84;100286.50;7698560;32;39915;-82
2022/01/07 13:02:02;;;;;;;8.20;3.53;;;;;;;11.32;21.86;100275.16;7712153;32;38589;-82
2022/01/07 13:06:18;;;;;;;4.87;3.20;;;;;;;11.73;21.26;100266.28;7712241;32;37369;-83
2022/01/07 13:10:37;;;;;;;11.85;4.30;;;;;;;12.01;20.15;100265.06;7712151;32;39403;-83
2022/01/07 13:14:54;;;;;;;8.95;4.50;;;;;;;12.28;19.54;100262.09;7712135;32;38875;-83
2022/01/07 13:19:12;;;;;;;8.95;5.00;;;;;;;12.27;20.20;100262.38;7711891;32;37961;-83
2022/01/07 13:23:29;;;;;;;10.23;3.80;;;;;;;12.63;20.10;100259.66;7711911;32;36980;-82
2022/01/07 13:27:45;;;;;;;7.25;3.20;;;;;;;12.17;18.68;100268.63;7711648;32;39923;-82
2022/01/07 13:32:03;;;;;;;8.45;4.72;;;;;;;12.17;20.16;100258.53;7711825;32;40698;-81
2022/01/07 13:36:19;;;;;;;8.35;4.07;;;;;;;13.04;19.31;100260.44;7711776;32;37724;-82
2022/01/07 13:40:35;;;;;;;7.70;3.95;;;;;;;14.16;18.19;100244.66;7711757;32;36849;-82
2022/01/07 13:45:02;;;;;;;8.02;3.62;;;;;;;15.16;16.62;100236.09;7711650;32;40052;-82
2022/01/07 13:49:18;;;;;;;8.10;3.62;;;;;;;17.69;13.54;100239.25;7711628;32;40969;-82
2022/01/07 13:53:35;;;;;;;8.00;3.55;;;;;;;20.72;11.42;100228.25;7711625;32;37934;-82
2022/01/07 13:57:51;;;;;;;5.85;2.95;;;;;;;21.99;10.05;100226.66;7711068;32;36742;-83
2022/01/07 14:02:08;;;;;;;8.80;3.83;;;;;;;23.35;9.25;100231.53;7711707;32;39827;-83
2022/01/07 14:06:25;;;;;;;7.87;4.00;;;;;;;23.39;9.29;100224.09;7711618;32;39954;-83
2022/01/07 14:10:41;;;;;;;7.22;3.85;;;;;;;24.20;7.87;100217.84;7711300;32;37997;-83
2022/01/07 14:15:06;;;;;;;7.37;3.60;;;;;;;23.72;8.31;100225.12;7709652;32;37104;-82
2022/01/07 14:19:22;;;;;;;8.73;3.55;;;;;;;24.43;7.88;100222.88;7711164;32;38436;-83
2022/01/07 14:23:40;;;;;;;6.62;3.40;;;;;;;24.63;7.27;100219.09;7710876;32;40021;-83
2022/01/07 14:27:56;;;;;;;7.37;3.55;;;;;;;24.84;7.36;100213.25;7710759;32;38690;-83
2022/01/07 14:32:12;;;;;;;6.80;3.50;;;;;;;24.12;7.93;100211.25;7711255;32;38001;-83
2022/01/07 14:36:28;;;;;;;8.80;3.50;;;;;;;23.53;7.83;100217.38;7711285;32;39250;-83
2022/01/07 14:40:44;;;;;;;9.23;3.85;;;;;;;22.34;8.76;100218.88;7711211;32;40690;-83
2022/01/07 14:45:00;;;;;;;6.72;3.33;;;;;;;21.61;9.83;100225.62;7711461;32;38720;-83
2022/01/07 14:49:17;;;;;;;10.10;3.40;;;;;;;20.74;10.24;100225.97;7710989;32;37703;-83
2022/01/07 14:53:33;;;;;;;7.80;3.90;;;;;;;20.31;10.24;100229.56;7711024;32;39094;-83
2022/01/07 14:57:50;;;;;;;9.27;3.92;;;;;;;18.09;12.10;100233.97;7710793;32;40724;-83
2022/01/07 15:02:07;;;;;;;8.40;3.80;;;;;;;14.51;15.42;100250.97;7710894;32;38623;-83
2022/01/07 15:06:24;;;;;;;6.75;3.62;;;;;;;12.92;17.14;100248.97;7710717;32;37925;-82
2022/01/07 15:10:41;;;;;;;6.53;3.58;;;;;;;11.27;18.78;100251.38;7709514;32;39336;-82
2022/01/07 15:14:57;;;;;;;7.30;3.90;;;;;;;10.23;20.34;100255.50;7710571;32;39767;-82
2022/01/07 15:19:15;;;;;;;10.18;4.43;;;;;;;9.24;21.82;100263.59;7710390;32;37843;-82
2022/01/07 15:23:31;;;;;;;10.00;4.22;;;;;;;8.53;22.84;100264.19;7710287;32;36959;-82
2022/01/07 15:27:47;;;;;;;8.02;4.37;;;;;;;7.98;24.66;100271.06;7709089;32;39500;-81
2022/01/07 15:32:05;;;;;;;10.77;4.90;;;;;;;7.50;25.69;100275.00;7709772;32;39850;-82
2022/01/07 15:36:21;;;;;;;8.80;5.22;;;;;;;7.08;26.60;100278.72;7708432;32;37579;-82
2022/01/07 15:40:37;;;;;;;9.43;5.50;;;;;;;6.82;26.24;100281.91;7709446;32;36758;-82
2022/01/07 15:44:53;;;;;;;8.25;4.80;;;;;;;6.30;28.30;100296.91;7709821;32;39257;-81
2022/01/07 15:49:09;;;;;;;9.10;5.03;;;;;;;5.63;29.60;100288.81;7709508;32;39956;-82
2022/01/07 15:53:26;;;;;;;9.52;4.87;;;;;;;5.36;30.77;100285.59;7709473;32;38600;-79
2022/01/07 15:57:42;;;;;;;9.00;5.00;;;;;;;4.86;30.57;100286.50;7709236;32;38009;-80
2022/01/07 16:01:58;;;;;;;8.65;4.82;;;;;;;4.76;30.58;100278.94;7709184;32;39257;-79
2022/01/07 16:06:14;;;;;;;9.43;4.90;;;;;;;4.73;31.21;100279.38;7709033;32;39939;-79
2022/01/07 16:10:31;;;;;;;13.32;4.93;;;;;;;4.38;31.90;100279.88;7708845;32;37886;-79
2022/01/07 16:14:47;;;;;;;9.73;5.43;;;;;;;4.08;32.96;100288.53;7708846;32;36885;-79
2022/01/07 16:19:04;;;;;;;51.30;20.88;;;;;;;3.97;33.75;100286.56;7708776;32;39116;-80
2022/01/07 16:23:24;;;;;;;19.90;8.32;;;;;;;3.94;33.18;100279.69;7711197;32;39982;-81
2022/01/07 16:27:42;;;;;;;8.40;5.45;;;;;;;3.66;34.48;100279.25;7712475;32;38126;-80
2022/01/07 16:31:59;;;;;;;8.43;4.68;;;;;;;3.32;35.68;100282.03;7712670;32;36968;-80
2022/01/07 16:36:16;;;;;;;12.80;6.32;;;;;;;3.28;35.60;100280.81;7712555;32;39154;-81
2022/01/07 16:40:32;;;;;;;9.63;5.43;;;;;;;3.11;35.91;100285.03;7698765;32;39987;-80
2022/01/07 16:44:48;;;;;;;8.45;5.25;;;;;;;2.88;36.17;100283.59;7712416;32;37950;-80
2022/01/07 16:49:04;;;;;;;9.70;5.12;;;;;;;2.75;36.88;100289.00;7712446;32;37312;-80
2022/01/07 16:53:40;;;;;;;9.63;5.35;;;;;;;2.71;36.92;100279.66;7712133;32;39634;-80
2022/01/07 16:57:56;;;;;;;9.38;5.78;;;;;;;2.65;37.34;100280.50;7698622;32;39987;-80
2022/01/07 17:02:12;;;;;;;6.25;4.80;;;;;;;2.61;37.07;100278.22;7712084;32;37963;-80
2022/01/07 17:06:28;;;;;;;11.45;5.70;;;;;;;2.34;37.81;100272.00;7712032;32;37105;-80
2022/01/07 17:10:45;;;;;;;10.77;5.95;;;;;;;2.35;37.67;100270.97;7711989;32;39790;-80
2022/01/07 17:15:04;;;;;;;17.83;6.93;;;;;;;2.23;37.68;100276.12;7711781;32;40193;-80
2022/01/07 17:19:21;;;;;;;21.58;10.95;;;;;;;2.27;37.51;100283.81;7711772;32;38613;-80
2022/01/07 17:23:37;;;;;;;11.27;6.55;;;;;;;2.31;37.20;100274.28;7711765;32;37213;-80
2022/01/07 17:27:53;;;;;;;18.83;10.57;;;;;;;2.01;38.26;100282.72;7711635;32;40056;-80
2022/01/07 17:32:09;;;;;;;14.60;7.10;;;;;;;1.85;39.44;100283.94;7711854;32;39699;-80
2022/01/07 17:36:26;;;;;;;11.52;7.18;;;;;;;1.86;40.69;100286.41;7711201;32;38005;-80
2022/01/07 17:40:42;;;;;;;13.02;7.80;;;;;;;1.84;40.56;100279.56;7711533;32;37798;-80
2022/01/07 17:45:00;;;;;;;14.95;7.53;;;;;;;1.85;40.78;100283.94;7711536;32;39101;-80
2022/01/07 17:49:17;;;;;;;12.82;7.28;;;;;;;1.84;41.10;100280.38;7711478;32;39609;-79
2022/01/07 17:53:33;;;;;;;15.82;7.47;;;;;;;1.62;41.25;100279.72;7711458;32;37794;-80
2022/01/07 17:57:49;;;;;;;15.68;7.90;;;;;;;1.63;40.81;100281.34;7711408;32;37790;-80
2022/01/07 18:02:06;;;;;;;10.70;6.90;;;;;;;1.76;40.24;100277.06;7711333;32;39984;-79
2022/01/07 18:06:23;;;;;;;15.30;8.27;;;;;;;1.75;41.00;100281.63;7711400;32;40791;-80
2022/01/07 18:10:39;;;;;;;11.57;7.28;;;;;;;1.43;41.88;100283.12;7711210;32;37829;-80
2022/01/07 18:14:58;;;;;;;13.75;7.90;;;;;;;1.44;42.01;100282.94;7711367;32;37864;-80
2022/01/07 18:19:19;;;;;;;14.18;7.60;;;;;;;1.24;42.58;100282.84;7709743;32;39928;-80
2022/01/07 18:23:39;;;;;;;10.85;7.03;;;;;;;1.36;42.17;100277.72;7710102;32;40075;-80
2022/01/07 18:27:56;;;;;;;14.15;7.37;;;;;;;1.30;41.59;100273.16;7710888;32;38475;-80
2022/01/07 18:32:12;;;;;;;12.85;7.78;;;;;;;1.31;41.15;100277.50;7711082;32;37881;-79
2022/01/07 18:36:28;;;;;;;13.25;7.82;;;;;;;1.33;41.59;100286.22;7711131;32;40113;-79
2022/01/07 18:40:44;;;;;;;13.38;8.30;;;;;;;1.43;40.95;100286.66;7711091;32;40137;-79
2022/01/07 18:45:00;;;;;;;15.52;8.45;;;;;;;1.30;41.89;100291.97;7709695;32;37904;-80
2022/01/07 18:49:18;;;;;;;14.95;9.63;;;;;;;1.48;41.40;100280.69;7710796;32;37423;-80
2022/01/07 18:53:38;;;;;;;14.95;8.73;;;;;;;1.40;41.47;100276.31;7710944;32;39241;-80
2022/01/07 18:57:54;;;;;;;19.15;9.48;;;;;;;1.22;41.83;100284.87;7710789;32;40801;-81
2022/01/07 19:02:10;;;;;;;14.95;8.88;;;;;;;1.13;42.82;100278.84;7710745;32;37849;-81
2022/01/07 19:06:27;;;;;;;15.30;8.13;;;;;;;1.44;42.29;100282.13;7710698;32;37114;-81
2022/01/07 19:10:44;;;;;;;23.67;9.00;;;;;;;1.15;42.74;100283.19;7710556;32;39286;-81
2022/01/07 19:15:00;;;;;;;16.62;9.60;;;;;;;1.08;43.05;100269.72;7710468;32;40001;-81
2022/01/07 19:19:16;;;;;;;16.48;8.65;;;;;;;0.60;44.34;100281.16;7710280;32;38112;-79
2022/01/07 19:23:32;;;;;;;15.00;9.10;;;;;;;0.81;45.03;100280.31;7710285;32;37917;-81
2022/01/07 19:27:51;;;;;;;18.37;9.02;;;;;;;1.05;43.68;100279.03;7709879;32;39984;-80
2022/01/07 19:32:08;;;;;;;22.25;11.65;;;;;;;0.85;43.97;100278.06;7709902;32;39770;-79
2022/01/07 19:36:24;;;;;;;21.23;12.35;;;;;;;1.01;43.75;100275.06;7709697;32;38862;-80
2022/01/07 19:40:40;;;;;;;24.45;14.68;;;;;;;1.01;43.69;100283.12;7709715;32;37879;-80
2022/01/07 19:44:57;;;;;;;20.60;10.82;;;;;;;0.83;43.70;100272.03;7709518;32;39952;-79
2022/01/07 19:49:13;;;;;;;19.77;10.82;;;;;;;0.68;44.36;100272.16;7709329;32;39953;-79
2022/01/07 19:53:29;;;;;;;23.77;11.73;;;;;;;0.51;44.80;100274.28;7709277;32;37898;-80
2022/01/07 19:57:45;;;;;;;18.05;10.48;;;;;;;0.42;46.30;100268.25;7710984;32;36979;-79
2022/01/07 20:02:01;;;;;;;15.93;9.98;;;;;;;0.46;45.61;100263.31;7712936;32;39253;-80
2022/01/07 20:06:18;;;;;;;20.30;10.60;;;;;;;0.29;45.44;100252.84;7712827;32;39902;-80
2022/01/07 20:10:36;;;;;;;17.65;10.48;;;;;;;0.57;43.98;100254.75;7712649;32;38236;-80
2022/01/07 20:14:52;;;;;;;18.33;10.70;;;;;;;0.44;44.50;100251.97;7712861;32;37434;-79